createdAt,value
2022-09-29T00:01:07.371Z,2.33
2022-09-29T00:03:34.889Z,2.60
2022-09-29T00:06:02.158Z,2.45
2022-09-29T00:08:31.043Z,3.03
2022-09-29T00:10:58.463Z,2.38
2022-09-29T00:13:25.770Z,2.25
2022-09-29T00:15:57.653Z,2.60
2022-09-29T00:18:25.102Z,2.50
2022-09-29T00:20:58.400Z,3.10
2022-09-29T00:23:27.771Z,2.88
2022-09-29T00:26:10.524Z,2.65
2022-09-29T00:28:40.294Z,3.00
2022-09-29T00:31:10.827Z,3.53
2022-09-29T00:33:39.050Z,2.80
2022-09-29T00:36:10.152Z,2.58
2022-09-29T00:38:37.358Z,2.20
2022-09-29T00:41:06.062Z,2.50
2022-09-29T00:43:56.913Z,2.90
2022-09-29T00:46:49.640Z,2.90
2022-09-29T00:49:45.306Z,3.17
2022-09-29T00:52:21.030Z,2.58
2022-09-29T00:55:25.994Z,2.75
2022-09-29T00:58:01.501Z,2.92
2022-09-29T01:00:28.829Z,3.15
2022-09-29T01:03:04.394Z,3.05
2022-09-29T01:05:44.280Z,2.88
2022-09-29T01:08:20.620Z,3.45
2022-09-29T01:10:49.549Z,3.22
2022-09-29T01:13:18.616Z,3.08
2022-09-29T01:15:45.988Z,2.90
2022-09-29T01:18:13.395Z,3.15
2022-09-29T01:21:03.281Z,3.33
2022-09-29T01:23:45.747Z,4.20
2022-09-29T01:26:27.569Z,3.83
2022-09-29T01:29:24.823Z,3.28
2022-09-29T01:32:06.481Z,3.78
2022-09-29T01:35:00.149Z,3.40
2022-09-29T01:37:57.175Z,3.65
2022-09-29T01:40:35.301Z,3.58
2022-09-29T01:43:12.187Z,3.33
2022-09-29T01:45:44.383Z,3.13
2022-09-29T01:48:25.623Z,3.20
2022-09-29T01:51:07.257Z,2.97
2022-09-29T01:53:40.270Z,3.33
2022-09-29T01:56:18.876Z,3.85
2022-09-29T01:59:00.163Z,4.07
2022-09-29T02:01:32.886Z,3.80
2022-09-29T02:04:06.353Z,3.28
2022-09-29T02:06:40.670Z,3.50
2022-09-29T02:09:19.138Z,3.47
2022-09-29T02:11:48.994Z,3.88
2022-09-29T02:14:21.215Z,3.38
2022-09-29T02:16:55.824Z,3.75
2022-09-29T02:19:29.522Z,3.60
2022-09-29T02:21:57.507Z,3.40
2022-09-29T02:24:25.085Z,3.38
2022-09-29T02:26:53.001Z,3.97
2022-09-29T02:29:20.777Z,3.75
2022-09-29T02:31:48.768Z,4.15
2022-09-29T02:34:21.663Z,4.28
2022-09-29T02:37:16.770Z,4.15
2022-09-29T02:39:56.111Z,3.65
2022-09-29T02:42:45.069Z,4.28
2022-09-29T02:45:18.218Z,4.25
2022-09-29T02:47:55.507Z,4.38
2022-09-29T02:51:13.249Z,3.80
2022-09-29T02:54:25.607Z,4.47
2022-09-29T02:57:11.622Z,4.65
2022-09-29T03:00:09.003Z,4.47
2022-09-29T03:02:38.123Z,4.60
2022-09-29T03:05:07.805Z,4.70
2022-09-29T03:07:37.009Z,4.93
2022-09-29T03:10:05.715Z,4.50
2022-09-29T03:12:33.096Z,3.97
2022-09-29T03:15:00.727Z,4.53
2022-09-29T03:17:27.981Z,4.68
2022-09-29T03:19:55.757Z,4.90
2022-09-29T03:22:23.066Z,4.50
2022-09-29T03:24:50.330Z,4.30
2022-09-29T03:27:17.763Z,4.43
2022-09-29T03:29:44.967Z,5.03
2022-09-29T03:32:12.135Z,4.63
2022-09-29T03:34:39.392Z,4.57
2022-09-29T03:37:06.575Z,4.40
2022-09-29T03:39:33.817Z,4.80
2022-09-29T03:42:00.997Z,5.15
2022-09-29T03:44:28.220Z,4.93
2022-09-29T03:46:55.465Z,5.30
2022-09-29T03:49:22.703Z,4.88
2022-09-29T03:51:49.972Z,4.70
2022-09-29T03:54:17.241Z,5.70
2022-09-29T03:56:44.422Z,5.37
2022-09-29T03:59:12.258Z,5.33
2022-09-29T04:01:39.713Z,5.65
2022-09-29T04:04:07.031Z,5.93
2022-09-29T04:06:34.364Z,5.78
2022-09-29T04:09:01.840Z,5.10
2022-09-29T04:11:29.052Z,4.60
2022-09-29T04:13:56.329Z,4.73
2022-09-29T04:16:24.612Z,4.45
2022-09-29T04:18:51.868Z,3.93
2022-09-29T04:21:19.263Z,4.33
2022-09-29T04:23:46.914Z,4.60
2022-09-29T04:26:14.216Z,4.07
2022-09-29T04:28:41.770Z,4.53
2022-09-29T04:31:09.404Z,4.85
2022-09-29T04:33:37.582Z,4.80
2022-09-29T04:36:05.302Z,4.70
2022-09-29T04:38:32.663Z,4.90
2022-09-29T04:41:00.275Z,4.73
2022-09-29T04:43:27.507Z,5.60
2022-09-29T04:46:05.022Z,5.30
2022-09-29T04:48:35.808Z,4.30
2022-09-29T04:51:04.873Z,4.60
2022-09-29T04:53:32.257Z,4.40
2022-09-29T04:55:59.764Z,4.40
2022-09-29T04:58:26.950Z,4.13
2022-09-29T05:00:54.144Z,5.00
2022-09-29T05:03:21.422Z,4.70
2022-09-29T05:05:48.588Z,4.47
2022-09-29T05:08:15.960Z,4.50
2022-09-29T05:10:47.608Z,4.60
2022-09-29T05:13:14.768Z,4.57
2022-09-29T05:15:41.946Z,4.03
2022-09-29T05:18:09.213Z,5.23
2022-09-29T05:20:42.359Z,5.23
2022-09-29T05:23:12.051Z,4.70
2022-09-29T05:25:40.346Z,4.60
2022-09-29T05:28:08.577Z,4.80
2022-09-29T05:30:36.126Z,4.47
2022-09-29T05:33:03.415Z,5.33
2022-09-29T05:35:30.823Z,5.17
2022-09-29T05:37:58.173Z,5.87
2022-09-29T05:40:25.676Z,5.77
2022-09-29T05:42:53.245Z,6.07
2022-09-29T05:45:20.507Z,6.90
2022-09-29T05:47:47.716Z,6.90
2022-09-29T05:50:15.124Z,7.07
2022-09-29T05:52:42.462Z,7.73
2022-09-29T05:55:10.783Z,6.83
2022-09-29T05:57:38.096Z,6.63
2022-09-29T06:00:06.233Z,7.53
2022-09-29T06:02:38.703Z,7.40
2022-09-29T06:05:06.137Z,7.10
2022-09-29T06:07:33.420Z,8.03
2022-09-29T06:10:00.637Z,7.83
2022-09-29T06:12:27.875Z,8.07
2022-09-29T06:14:55.058Z,8.30
2022-09-29T06:17:22.286Z,7.23
2022-09-29T06:19:49.545Z,7.37
2022-09-29T06:22:16.732Z,7.90
2022-09-29T06:24:43.905Z,7.17
2022-09-29T06:27:11.271Z,7.20
2022-09-29T06:29:38.637Z,7.50
2022-09-29T06:32:05.944Z,7.80
2022-09-29T06:34:33.167Z,7.83
2022-09-29T06:37:18.883Z,8.00
2022-09-29T06:39:46.082Z,7.80
2022-09-29T06:42:13.289Z,7.73
2022-09-29T06:44:40.565Z,9.13
2022-09-29T06:47:07.961Z,7.87
2022-09-29T06:49:35.198Z,8.40
2022-09-29T06:52:17.077Z,8.70
2022-09-29T06:54:47.468Z,8.43
2022-09-29T06:57:19.563Z,9.33
2022-09-29T06:59:46.829Z,10.20
2022-09-29T07:02:14.122Z,9.70
2022-09-29T07:04:41.395Z,9.80
2022-09-29T07:07:08.597Z,9.90
2022-09-29T07:09:35.798Z,9.87
2022-09-29T07:12:03.107Z,10.30
2022-09-29T07:14:30.311Z,9.37
2022-09-29T07:16:59.171Z,9.52
2022-09-29T07:19:26.520Z,10.07
2022-09-29T07:21:53.727Z,9.20
2022-09-29T07:24:21.191Z,10.47
2022-09-29T07:26:48.387Z,9.97
2022-09-29T07:29:16.311Z,9.73
2022-09-29T07:31:51.404Z,9.93
2022-09-29T07:34:20.934Z,12.53
2022-09-29T07:36:48.721Z,11.85
2022-09-29T07:39:16.074Z,11.55
2022-09-29T07:41:43.294Z,11.48
2022-09-29T07:44:11.392Z,11.35
2022-09-29T07:46:38.635Z,10.85
2022-09-29T07:49:06.009Z,10.05
2022-09-29T07:51:33.188Z,11.07
2022-09-29T07:54:05.122Z,11.93
2022-09-29T07:56:33.029Z,11.80
2022-09-29T07:59:02.270Z,11.30
2022-09-29T08:01:30.079Z,12.18
2022-09-29T08:03:57.552Z,12.57
2022-09-29T08:06:26.282Z,10.90
2022-09-29T08:09:03.539Z,11.65
2022-09-29T08:11:34.314Z,12.68
2022-09-29T08:14:02.305Z,13.35
2022-09-29T08:16:30.644Z,12.23
2022-09-29T08:18:59.592Z,13.25
2022-09-29T08:21:27.569Z,13.43
2022-09-29T08:23:54.785Z,13.57
2022-09-29T08:26:35.672Z,14.50
2022-09-29T08:29:08.809Z,15.00
2022-09-29T08:31:38.097Z,14.77
2022-09-29T08:34:05.966Z,14.20
2022-09-29T08:36:33.255Z,14.77
2022-09-29T08:39:00.601Z,13.35
2022-09-29T08:41:48.796Z,13.32
2022-09-29T08:44:38.282Z,13.38
2022-09-29T08:47:22.023Z,13.30
2022-09-29T08:49:55.468Z,13.63
2022-09-29T08:52:26.848Z,12.52
2022-09-29T08:55:08.958Z,13.25
2022-09-29T08:57:39.287Z,13.77
2022-09-29T09:00:11.385Z,14.52
2022-09-29T09:03:10.174Z,15.18
2022-09-29T09:09:13.464Z,13.23
2022-09-29T09:12:18.604Z,13.73
2022-09-29T09:15:15.886Z,12.63
2022-09-29T09:17:52.013Z,12.38
2022-09-29T09:20:41.641Z,15.73
2022-09-29T09:23:22.436Z,12.95
2022-09-29T09:25:53.805Z,13.13
2022-09-29T09:28:52.318Z,13.70
2022-09-29T09:31:46.470Z,13.05
2022-09-29T09:34:22.580Z,13.45
2022-09-29T09:37:07.229Z,11.95
2022-09-29T09:39:42.870Z,12.63
2022-09-29T09:42:18.049Z,11.88
2022-09-29T09:44:58.999Z,12.38
2022-09-29T09:47:37.644Z,12.15
2022-09-29T09:50:15.288Z,11.77
2022-09-29T09:52:52.473Z,11.73
2022-09-29T09:55:25.332Z,10.43
2022-09-29T09:58:11.655Z,11.13
2022-09-29T10:00:51.194Z,11.45
2022-09-29T10:03:18.582Z,12.35
2022-09-29T10:05:48.567Z,10.95
2022-09-29T10:08:19.748Z,10.27
2022-09-29T10:10:58.096Z,10.13
2022-09-29T10:13:28.589Z,10.20
2022-09-29T10:16:01.535Z,8.60
2022-09-29T10:18:42.411Z,7.70
2022-09-29T10:21:37.110Z,8.07
2022-09-29T10:24:08.108Z,7.00
2022-09-29T10:26:46.614Z,7.22
2022-09-29T10:29:31.533Z,12.02
2022-09-29T10:32:03.429Z,7.00
2022-09-29T10:34:32.396Z,5.80
2022-09-29T10:37:06.242Z,6.53
2022-09-29T10:39:43.018Z,6.28
2022-09-29T10:42:34.717Z,5.70
2022-09-29T10:45:14.110Z,6.47
2022-09-29T10:47:44.847Z,5.47
2022-09-29T10:50:34.883Z,6.70
2022-09-29T10:53:17.111Z,6.85
2022-09-29T10:55:51.930Z,6.88
2022-09-29T10:58:45.083Z,6.00
2022-09-29T11:01:19.650Z,7.30
2022-09-29T11:04:03.337Z,6.60
2022-09-29T11:06:38.419Z,6.65
2022-09-29T11:09:27.828Z,5.28
2022-09-29T11:12:01.421Z,4.80
2022-09-29T11:14:39.401Z,5.68
2022-09-29T11:17:26.709Z,5.28
2022-09-29T11:19:56.950Z,5.40
2022-09-29T11:22:50.616Z,4.82
2022-09-29T11:25:20.647Z,5.25
2022-09-29T11:28:07.293Z,4.72
2022-09-29T11:30:48.526Z,4.75
2022-09-29T11:33:46.955Z,4.72
2022-09-29T11:36:50.343Z,14.00
2022-09-29T11:39:38.627Z,5.68
2022-09-29T11:42:32.878Z,3.88
2022-09-29T11:45:02.210Z,4.00
2022-09-29T11:48:00.101Z,4.10
2022-09-29T11:51:08.519Z,3.50
2022-09-29T11:53:40.409Z,3.25
2022-09-29T11:56:37.900Z,3.63
2022-09-29T11:59:41.990Z,2.83
2022-09-29T12:02:42.736Z,3.10
2022-09-29T12:05:24.562Z,3.38
2022-09-29T12:08:18.140Z,3.05
2022-09-29T12:11:30.112Z,2.25
2022-09-29T12:14:42.946Z,2.38
2022-09-29T12:17:15.705Z,2.97
2022-09-29T12:19:45.013Z,2.05
2022-09-29T12:22:19.316Z,2.15
2022-09-29T12:24:57.183Z,2.70
2022-09-29T12:27:39.840Z,5.03
2022-09-29T12:30:20.406Z,2.22
2022-09-29T12:33:26.855Z,1.90
2022-09-29T12:36:36.066Z,2.05
2022-09-29T12:39:15.479Z,1.83
2022-09-29T12:41:49.154Z,1.98
2022-09-29T12:45:10.605Z,2.25
2022-09-29T12:47:53.663Z,1.92
2022-09-29T12:50:36.148Z,1.75
2022-09-29T12:53:16.103Z,1.80
2022-09-29T12:55:59.975Z,1.92
2022-09-29T12:58:47.439Z,1.63
2022-09-29T13:01:20.771Z,1.95
2022-09-29T13:04:04.141Z,1.80
2022-09-29T13:06:58.981Z,1.92
2022-09-29T13:09:44.835Z,2.00
2022-09-29T13:12:38.368Z,2.35
2022-09-29T13:15:18.578Z,1.60
2022-09-29T13:17:51.711Z,2.00
2022-09-29T13:20:28.645Z,1.77
2022-09-29T13:23:11.683Z,2.35
2022-09-29T13:26:01.634Z,1.63
2022-09-29T13:28:32.368Z,1.92
2022-09-29T13:31:08.779Z,1.67
2022-09-29T13:33:36.376Z,2.10
2022-09-29T13:36:04.280Z,1.90
2022-09-29T13:44:24.470Z,2.15
2022-09-29T13:46:53.184Z,1.75
2022-09-29T13:49:26.310Z,1.63
2022-09-29T13:52:33.036Z,2.00
2022-09-29T13:55:38.770Z,2.30
2022-09-29T13:58:31.549Z,1.85
2022-09-29T14:01:00.825Z,2.03
2022-09-29T14:03:36.660Z,2.58
2022-09-29T14:06:40.257Z,2.30
2022-09-29T14:09:12.385Z,2.42
2022-09-29T14:12:02.468Z,2.03
2022-09-29T14:14:34.600Z,1.83
2022-09-29T14:17:13.445Z,2.70
2022-09-29T14:19:59.584Z,2.03
2022-09-29T14:22:35.863Z,1.80
2022-09-29T14:25:12.155Z,2.08
2022-09-29T14:28:01.630Z,2.80
2022-09-29T14:30:32.479Z,1.98
2022-09-29T14:33:08.644Z,3.00
2022-09-29T14:35:38.565Z,2.55
2022-09-29T14:38:08.901Z,2.70
2022-09-29T14:40:36.523Z,3.15
2022-09-29T14:43:15.897Z,2.53
2022-09-29T14:46:29.386Z,2.25
2022-09-29T14:49:18.262Z,2.50
2022-09-29T14:52:09.875Z,2.53
2022-09-29T14:54:42.548Z,2.10
2022-09-29T14:57:46.983Z,2.25
2022-09-29T15:00:20.121Z,2.78
2022-09-29T15:02:59.977Z,2.20
2022-09-29T15:05:38.031Z,2.42
2022-09-29T15:08:28.166Z,2.70
2022-09-29T15:10:58.022Z,2.10
2022-09-29T15:13:31.409Z,2.28
2022-09-29T15:16:15.656Z,2.55
2022-09-29T15:19:07.175Z,2.25
2022-09-29T15:22:01.728Z,2.17
2022-09-29T15:24:55.039Z,3.92
2022-09-29T15:27:22.845Z,2.83
2022-09-29T15:29:55.676Z,2.30
2022-09-29T15:32:26.247Z,1.90
2022-09-29T15:34:59.706Z,1.85
2022-09-29T15:37:27.904Z,1.85
2022-09-29T15:39:55.197Z,1.85
2022-09-29T15:42:25.931Z,1.70
2022-09-29T15:45:01.556Z,2.00
2022-09-29T15:47:35.935Z,2.08
2022-09-29T15:50:20.823Z,1.60
2022-09-29T15:52:50.392Z,1.73
2022-09-29T15:55:23.539Z,1.30
2022-09-29T15:57:55.709Z,1.90
2022-09-29T16:00:22.921Z,1.33
2022-09-29T16:03:03.169Z,1.13
2022-09-29T16:05:33.062Z,1.80
2022-09-29T16:08:03.120Z,2.13
2022-09-29T16:10:38.315Z,1.58
2022-09-29T16:13:08.685Z,1.50
2022-09-29T16:15:41.811Z,3.88
2022-09-29T16:18:16.166Z,3.33
2022-09-29T16:20:44.675Z,1.92
2022-09-29T16:23:34.649Z,1.63
2022-09-29T16:26:07.724Z,1.65
2022-09-29T16:28:37.754Z,1.38
2022-09-29T16:31:15.719Z,1.63
2022-09-29T16:33:54.191Z,5.40
2022-09-29T16:36:24.812Z,2.75
2022-09-29T16:38:53.727Z,2.40
2022-09-29T16:41:38.516Z,1.80
2022-09-29T16:44:10.513Z,13.05
2022-09-29T16:47:09.482Z,7.65
2022-09-29T16:49:51.026Z,4.35
2022-09-29T16:52:28.569Z,2.88
2022-09-29T16:55:20.676Z,2.83
2022-09-29T16:57:56.211Z,2.08
2022-09-29T17:00:23.606Z,1.70
2022-09-29T17:02:52.416Z,2.60
2022-09-29T17:05:21.804Z,2.28
2022-09-29T17:07:50.707Z,2.58
2022-09-29T17:10:20.602Z,5.05
2022-09-29T17:12:48.083Z,4.63
2022-09-29T17:15:17.139Z,3.10
2022-09-29T17:17:49.044Z,2.17
2022-09-29T17:20:19.939Z,2.42
2022-09-29T17:22:48.887Z,3.08
2022-09-29T17:25:16.252Z,3.60
2022-09-29T17:28:05.249Z,3.67
2022-09-29T17:30:32.438Z,3.42
2022-09-29T17:33:00.429Z,4.20
2022-09-29T17:35:33.259Z,4.85
2022-09-29T17:38:00.621Z,3.90
2022-09-29T17:40:54.014Z,4.25
2022-09-29T17:43:23.401Z,3.72
2022-09-29T17:45:52.349Z,3.92
2022-09-29T17:48:20.008Z,4.72
2022-09-29T17:50:50.538Z,3.92
2022-09-29T17:53:19.049Z,3.28
2022-09-29T17:55:49.579Z,3.65
2022-09-29T17:58:18.866Z,3.95
2022-09-29T18:00:51.422Z,3.50
2022-09-29T18:03:20.400Z,4.60
2022-09-29T18:05:56.772Z,4.57
2022-09-29T18:08:26.196Z,4.32
2022-09-29T18:11:01.578Z,5.88
2022-09-29T18:13:34.033Z,4.72
2022-09-29T18:16:02.030Z,5.68
2022-09-29T18:18:29.527Z,5.88
2022-09-29T18:20:56.774Z,5.47
2022-09-29T18:23:24.109Z,5.63
2022-09-29T18:25:52.746Z,5.78
2022-09-29T18:28:20.320Z,4.05
2022-09-29T18:31:21.357Z,4.15
2022-09-29T18:33:48.677Z,5.22
2022-09-29T18:36:16.097Z,4.07
2022-09-29T18:38:43.429Z,3.97
2022-09-29T18:41:16.036Z,3.90
2022-09-29T18:43:43.318Z,3.95
2022-09-29T18:46:11.790Z,4.22
2022-09-29T18:48:39.255Z,4.20
2022-09-29T18:51:06.628Z,4.90
2022-09-29T18:53:33.870Z,5.75
2022-09-29T18:56:03.335Z,6.90
2022-09-29T18:58:31.263Z,12.27
2022-09-29T19:00:58.876Z,9.90
2022-09-29T19:03:27.674Z,7.32
2022-09-29T19:05:56.055Z,6.38
2022-09-29T19:08:24.075Z,5.45
2022-09-29T19:10:55.178Z,5.40
2022-09-29T19:13:22.781Z,6.18
2022-09-29T19:15:55.960Z,7.00
2022-09-29T19:18:24.226Z,5.85
2022-09-29T19:20:54.507Z,5.97
2022-09-29T19:23:23.096Z,4.95
2022-09-29T19:25:51.973Z,5.07
2022-09-29T19:28:21.382Z,4.75
2022-09-29T19:30:50.137Z,5.03
2022-09-29T19:33:21.165Z,8.85
2022-09-29T19:35:52.030Z,9.73
2022-09-29T19:38:19.878Z,7.00
2022-09-29T19:40:49.143Z,6.45
2022-09-29T19:43:16.473Z,6.90
2022-09-29T19:45:44.767Z,6.25
2022-09-29T19:48:16.482Z,6.57
2022-09-29T19:51:03.230Z,6.53
2022-09-29T19:53:31.100Z,6.25
2022-09-29T19:55:58.601Z,6.28
2022-09-29T19:58:26.131Z,6.75
2022-09-29T20:00:57.517Z,7.28
2022-09-29T20:03:25.026Z,7.65
2022-09-29T20:05:58.038Z,7.75
2022-09-29T20:08:25.408Z,8.30
2022-09-29T20:10:52.915Z,7.50
2022-09-29T20:13:20.228Z,7.90
2022-09-29T20:15:47.963Z,7.28
2022-09-29T20:18:15.235Z,6.65
2022-09-29T20:20:43.590Z,6.65
2022-09-29T20:23:10.767Z,6.68
2022-09-29T20:25:38.314Z,6.28
2022-09-29T20:28:08.795Z,7.18
2022-09-29T20:30:38.024Z,7.68
2022-09-29T20:33:05.273Z,6.75
2022-09-29T20:35:32.897Z,7.47
2022-09-29T20:38:00.999Z,7.10
2022-09-29T20:40:28.166Z,6.90
2022-09-29T20:42:55.375Z,7.13
2022-09-29T20:45:23.305Z,5.78
2022-09-29T20:47:50.505Z,7.00
2022-09-29T20:50:17.694Z,7.53
2022-09-29T20:52:44.984Z,6.47
2022-09-29T20:55:12.252Z,7.22
2022-09-29T20:57:42.873Z,7.40
2022-09-29T21:00:13.469Z,7.43
2022-09-29T21:02:40.835Z,7.20
2022-09-29T21:05:08.395Z,7.32
2022-09-29T21:07:35.676Z,6.22
2022-09-29T21:10:04.481Z,6.88
2022-09-29T21:12:32.505Z,6.97
2022-09-29T21:15:01.145Z,8.25
2022-09-29T21:17:29.248Z,7.28
2022-09-29T21:19:59.974Z,6.28
2022-09-29T21:22:28.049Z,7.50
2022-09-29T21:24:55.529Z,7.32
2022-09-29T21:27:22.875Z,7.68
2022-09-29T21:29:50.339Z,7.40
2022-09-29T21:32:17.735Z,7.35
2022-09-29T21:34:44.904Z,6.78
2022-09-29T21:37:12.106Z,7.00
2022-09-29T21:39:39.386Z,7.45
2022-09-29T21:42:06.920Z,8.25
2022-09-29T21:44:34.164Z,8.30
2022-09-29T21:47:01.379Z,7.68
2022-09-29T21:49:28.632Z,7.75
2022-09-29T21:52:00.016Z,7.10
2022-09-29T21:54:30.148Z,7.43
2022-09-29T21:56:57.454Z,7.45
2022-09-29T21:59:24.670Z,6.93
2022-09-29T22:01:52.722Z,7.43
2022-09-29T22:04:20.823Z,7.55
2022-09-29T22:06:48.300Z,7.63
2022-09-29T22:09:18.453Z,7.50
2022-09-29T22:11:46.360Z,7.38
2022-09-29T22:14:14.300Z,7.40
2022-09-29T22:16:41.983Z,7.95
2022-09-29T22:19:22.844Z,7.03
2022-09-29T22:21:52.389Z,6.20
2022-09-29T22:24:19.639Z,7.47
2022-09-29T22:26:46.875Z,7.47
2022-09-29T22:29:14.127Z,7.60
2022-09-29T22:31:41.419Z,7.28
2022-09-29T22:34:11.099Z,7.57
2022-09-29T22:36:39.255Z,7.18
2022-09-29T22:39:07.439Z,7.05
2022-09-29T22:41:36.714Z,7.45
2022-09-29T22:44:04.358Z,6.65
2022-09-29T22:46:32.648Z,7.10
2022-09-29T22:49:00.311Z,6.18
2022-09-29T22:51:28.497Z,6.18
2022-09-29T22:53:55.731Z,5.78
2022-09-29T22:56:30.344Z,5.55
2022-09-29T22:59:02.949Z,5.47
2022-09-29T23:01:30.521Z,6.38
2022-09-29T23:03:58.023Z,5.65
2022-09-29T23:06:25.464Z,5.38
2022-09-29T23:08:55.342Z,5.90
2022-09-29T23:11:22.948Z,6.85
2022-09-29T23:13:50.384Z,5.28
2022-09-29T23:16:18.561Z,6.75
2022-09-29T23:18:46.475Z,5.95
2022-09-29T23:21:18.964Z,5.32
2022-09-29T23:23:47.819Z,4.65
2022-09-29T23:26:15.525Z,5.15
2022-09-29T23:28:42.816Z,5.20
2022-09-29T23:31:11.283Z,4.60
2022-09-29T23:33:39.456Z,5.47
2022-09-29T23:36:11.269Z,4.85
2022-09-29T23:39:01.798Z,4.60
2022-09-29T23:41:30.393Z,4.35
2022-09-29T23:44:00.295Z,4.88
2022-09-29T23:46:32.202Z,4.50
2022-09-29T23:49:00.660Z,4.95
2022-09-29T23:51:32.042Z,4.68
2022-09-29T23:54:00.203Z,4.20
2022-09-29T23:56:27.667Z,4.40
2022-09-29T23:58:55.352Z,4.38
